Time;durP1;ratioP1;P1;durP2;ratioP2;P2;SDS_P1;SDS_P2;PMS_P1;PMS_P2;Temp;Humidity;BMP_temperature;BMP_pressure;BME280_temperature;BME280_humidity;BME280_pressure;Samples;Min_cycle;Max_cycle;Signal;HPM_P1;HPM_P2
2023/09/15 00:02:05;;;;;;;16.58;5.72;;;;;;;12.55;81.10;100509.94;10062065;29;20053;-88
2023/09/15 00:07:06;;;;;;;17.23;6.35;;;;;;;12.67;81.54;100542.34;10061470;29;20081;-89
2023/09/15 00:12:07;;;;;;;10.45;5.95;;;;;;;12.86;81.92;100594.38;10061719;29;20037;-89
2023/09/15 00:17:08;;;;;;;25.10;6.70;;;;;;;12.74;81.98;100587.78;10061043;29;20566;-88
2023/09/15 00:22:09;;;;;;;12.60;6.15;;;;;;;12.45;81.85;100554.66;10060829;29;20068;-88
2023/09/15 00:27:10;;;;;;;10.40;5.65;;;;;;;12.45;82.57;100561.81;10061552;29;20524;-89
2023/09/15 00:32:11;;;;;;;13.85;6.10;;;;;;;12.64;82.17;100598.69;10060381;29;20045;-89
2023/09/15 00:37:11;;;;;;;13.15;6.32;;;;;;;12.43;82.35;100591.28;10060377;29;20037;-89
2023/09/15 00:42:12;;;;;;;10.00;5.80;;;;;;;12.57;82.92;100601.22;10059998;29;20057;-89
2023/09/15 00:47:13;;;;;;;117.50;9.73;;;;;;;12.62;82.80;100594.53;10061222;29;20045;-86
2023/09/15 00:52:15;;;;;;;29.02;6.75;;;;;;;12.40;82.69;100596.16;10060259;29;20128;-90
2023/09/15 00:57:16;;;;;;;21.90;6.22;;;;;;;12.15;82.94;100604.25;10058735;29;20124;-89
2023/09/15 01:02:17;;;;;;;26.05;6.13;;;;;;;11.65;83.17;100539.63;10058822;29;20057;-89
2023/09/15 01:07:18;;;;;;;25.77;6.78;;;;;;;11.83;83.65;100567.84;10073843;29;20057;-89
2023/09/15 01:12:19;;;;;;;24.13;6.15;;;;;;;11.65;83.68;100547.59;10060057;29;20057;-89
2023/09/15 01:17:27;;;;;;;23.45;6.00;;;;;;;11.70;84.75;100565.72;10058880;29;20077;-89
2023/09/15 01:22:49;;;;;;;12.80;6.00;;;;;;;11.90;84.74;100608.78;10059346;29;20052;-89
2023/09/15 01:28:04;;;;;;;17.73;6.53;;;;;;;11.67;85.28;100574.06;10059200;29;20402;-89
2023/09/15 01:33:09;;;;;;;21.95;6.93;;;;;;;11.31;84.14;100531.88;10058048;29;20097;-89
2023/09/15 01:38:09;;;;;;;11.52;6.30;;;;;;;11.59;84.01;100582.03;10058771;29;20056;-89
2023/09/15 01:43:10;;;;;;;16.15;6.85;;;;;;;11.64;83.95;100604.50;10058804;29;20052;-88
2023/09/15 01:48:12;;;;;;;12.65;6.45;;;;;;;11.48;84.26;100587.72;10058234;29;20048;-89
2023/09/15 01:53:13;;;;;;;20.65;7.45;;;;;;;11.40;84.27;100577.91;10058247;29;20050;-89
2023/09/15 01:58:14;;;;;;;15.80;6.93;;;;;;;11.54;84.16;100595.84;10057516;29;20046;-89
2023/09/15 02:03:16;;;;;;;46.70;7.88;;;;;;;11.58;83.76;100601.69;10057750;29;20064;-89
2023/09/15 02:08:17;;;;;;;25.10;7.35;;;;;;;11.28;83.92;100585.41;10054514;29;20061;-86
2023/09/15 02:13:18;;;;;;;97.65;10.60;;;;;;;11.08;83.94;100568.13;10057607;29;20050;-88
2023/09/15 02:18:18;;;;;;;101.20;10.32;;;;;;;11.22;84.06;100604.69;10056768;29;20056;-88
2023/09/15 02:23:19;;;;;;;155.95;13.88;;;;;;;11.17;83.92;100620.28;10055965;29;20053;-89
2023/09/15 02:28:20;;;;;;;67.25;10.00;;;;;;;11.06;83.16;100623.28;10056581;29;20109;-88
2023/09/15 02:33:22;;;;;;;47.17;9.63;;;;;;;11.03;82.97;100629.75;10056742;29;20105;-89
2023/09/15 02:38:23;;;;;;;150.10;14.93;;;;;;;10.94;82.34;100623.56;10055879;29;20046;-89
2023/09/15 02:43:23;;;;;;;72.60;11.15;;;;;;;11.10;81.74;100661.84;10056254;29;20065;-90
2023/09/15 02:48:24;;;;;;;34.50;9.55;;;;;;;10.92;81.26;100640.72;10054441;29;20455;-89
2023/09/15 02:53:25;;;;;;;59.42;10.50;;;;;;;10.57;80.87;100607.22;10057222;29;20041;-89
2023/09/15 02:58:27;;;;;;;173.18;15.63;;;;;;;10.80;80.23;100655.28;10054626;29;20566;-90
2023/09/15 03:03:29;;;;;;;212.82;16.80;;;;;;;10.65;80.05;100623.16;10056022;29;20438;-89
2023/09/15 03:08:30;;;;;;;398.38;30.25;;;;;;;11.14;79.36;100676.47;10053992;29;20410;-77
2023/09/15 03:13:31;;;;;;;161.93;16.15;;;;;;;10.76;79.37;100609.59;10053693;29;20065;-78
2023/09/15 03:18:31;;;;;;;272.45;20.67;;;;;;;11.30;79.22;100691.59;10054305;29;20414;-74
2023/09/15 03:23:32;;;;;;;87.93;11.00;;;;;;;11.45;78.42;100697.09;10063141;29;20182;-73
2023/09/15 03:28:35;;;;;;;57.72;12.38;;;;;;;11.65;78.37;100701.13;10062259;29;20421;-73
2023/09/15 03:33:36;;;;;;;137.70;27.27;;;;;;;11.62;77.17;100665.03;10061403;29;20041;-73
2023/09/15 03:38:36;;;;;;;32.60;14.68;;;;;;;12.13;75.99;100719.91;10062139;29;20041;-81
2023/09/15 03:43:37;;;;;;;26.25;10.48;;;;;;;12.26;75.38;100714.88;10076061;29;20056;-89
2023/09/15 03:48:38;;;;;;;26.95;9.98;;;;;;;12.42;74.14;100664.25;10063042;29;20045;-89
2023/09/15 03:53:38;;;;;;;42.65;10.32;;;;;;;12.66;73.78;100671.31;10062711;29;20486;-80
2023/09/15 03:58:39;;;;;;;23.38;8.98;;;;;;;12.94;73.21;100711.66;10059915;29;20094;-87
2023/09/15 04:03:40;;;;;;;44.80;9.93;;;;;;;12.99;73.18;100727.16;10061544;29;20049;-89
2023/09/15 04:08:41;;;;;;;64.32;11.80;;;;;;;12.81;73.06;100671.41;10062574;29;20189;-88
2023/09/15 04:13:41;;;;;;;30.17;9.50;;;;;;;13.81;71.87;100745.31;10061638;29;20057;-87
2023/09/15 04:18:42;;;;;;;36.58;9.48;;;;;;;14.73;70.05;100721.03;10061288;29;20050;-89
2023/09/15 04:23:43;;;;;;;69.47;10.45;;;;;;;15.53;68.49;100725.47;10061841;29;20139;-88
2023/09/15 04:28:44;;;;;;;18.80;7.95;;;;;;;16.48;65.19;100744.78;10059615;29;20041;-85
2023/09/15 04:33:45;;;;;;;21.98;6.72;;;;;;;16.94;63.45;100749.63;10058991;29;20098;-88
2023/09/15 04:38:46;;;;;;;25.75;7.18;;;;;;;17.32;60.80;100748.09;10060453;29;20045;-85
2023/09/15 04:43:47;;;;;;;32.28;7.53;;;;;;;17.57;59.66;100726.88;10059347;29;20045;-89
2023/09/15 04:48:48;;;;;;;24.20;8.82;;;;;;;17.74;59.21;100743.44;10060508;29;20095;-88
2023/09/15 04:53:48;;;;;;;25.92;7.05;;;;;;;17.50;58.65;100660.72;10061105;29;20073;-89
2023/09/15 04:58:51;;;;;;;14.45;7.18;;;;;;;17.71;56.82;100665.91;10060477;29;20494;-88
2023/09/15 05:03:52;;;;;;;22.40;7.57;;;;;;;18.50;55.93;100742.16;10060304;29;20558;-89
2023/09/15 05:08:52;;;;;;;14.52;7.25;;;;;;;18.64;55.69;100706.13;10059726;29;20116;-90
2023/09/15 05:13:53;;;;;;;16.77;7.05;;;;;;;19.03;53.84;100728.56;10060010;29;20045;-89
2023/09/15 05:18:54;;;;;;;18.90;6.80;;;;;;;19.32;52.73;100729.84;10059801;29;20046;-88
2023/09/15 05:23:54;;;;;;;43.67;23.10;;;;;;;19.51;52.08;100721.88;10059682;29;20046;-90
2023/09/15 05:28:55;;;;;;;44.10;14.50;;;;;;;19.66;51.87;100700.03;10059854;29;20053;-90
2023/09/15 05:33:57;;;;;;;29.77;8.75;;;;;;;19.75;50.90;100683.38;10059037;29;20101;-90
2023/09/15 05:38:58;;;;;;;18.92;10.43;;;;;;;20.37;49.90;100741.91;10059381;29;20402;-88
2023/09/15 05:43:59;;;;;;;26.88;8.23;;;;;;;20.43;49.32;100736.47;10059436;29;20045;-89
2023/09/15 05:48:59;;;;;;;26.23;7.78;;;;;;;20.52;48.96;100708.16;10059148;29;20140;-90
2023/09/15 05:54:00;;;;;;;26.55;7.50;;;;;;;20.92;48.17;100740.09;10058409;29;20043;-88
2023/09/15 05:59:01;;;;;;;25.67;8.18;;;;;;;21.14;47.95;100726.91;10058812;29;20077;-87
2023/09/15 06:04:01;;;;;;;21.90;7.45;;;;;;;20.81;47.97;100634.72;10059267;29;20106;-86
2023/09/15 06:09:02;;;;;;;20.92;8.90;;;;;;;21.51;47.33;100693.56;10058957;29;20149;-90
2023/09/15 06:14:03;;;;;;;18.10;7.53;;;;;;;21.70;46.63;100654.59;10057951;29;20092;-89
2023/09/15 06:19:04;;;;;;;17.10;7.38;;;;;;;22.27;46.20;100708.97;10058865;29;20311;-88
2023/09/15 06:24:05;;;;;;;18.60;7.70;;;;;;;22.48;45.89;100712.94;10056671;29;20053;-90
2023/09/15 06:29:06;;;;;;;18.60;7.70;;;;;;;22.52;45.45;100653.72;10059761;29;20049;-91
2023/09/15 06:34:06;;;;;;;14.15;7.32;;;;;;;23.39;45.22;100726.72;10058246;29;20052;-90
2023/09/15 06:39:07;;;;;;;19.38;7.93;;;;;;;23.48;44.73;100718.97;10057171;29;20506;-89
2023/09/15 06:44:10;;;;;;;15.82;7.47;;;;;;;23.54;44.65;100707.16;10057248;29;20057;-92
2023/09/15 06:49:11;;;;;;;22.83;8.85;;;;;;;23.58;44.56;100681.22;10058012;29;20165;-92
2023/09/15 06:54:12;;;;;;;18.67;7.80;;;;;;;23.99;43.17;100732.59;10059112;29;20041;-91
2023/09/15 06:59:13;;;;;;;21.45;7.25;;;;;;;24.20;42.52;100725.59;10064853;29;20053;-89
2023/09/15 07:04:14;;;;;;;24.13;7.88;;;;;;;24.50;42.23;100736.94;10064104;29;20053;-92
2023/09/15 07:09:15;;;;;;;17.20;7.70;;;;;;;24.55;41.77;100715.25;10065276;29;20066;-92
2023/09/15 07:14:16;;;;;;;18.95;7.78;;;;;;;24.77;41.30;100719.91;10063831;29;20049;-92
2023/09/15 07:19:16;;;;;;;19.92;8.88;;;;;;;24.66;41.07;100694.50;10063937;29;20115;-92
2023/09/15 07:24:17;;;;;;;19.23;7.40;;;;;;;25.13;40.28;100706.69;10063766;29;20041;-92
2023/09/15 07:29:18;;;;;;;15.32;6.53;;;;;;;25.24;39.42;100694.88;10064319;29;20478;-88
2023/09/15 07:34:21;;;;;;;16.45;6.90;;;;;;;25.36;38.88;100711.84;10063881;29;20044;-90
2023/09/15 07:39:22;;;;;;;12.05;6.13;;;;;;;25.65;38.67;100690.63;10063803;29;20052;-92
2023/09/15 07:44:23;;;;;;;18.10;6.40;;;;;;;25.87;37.89;100692.44;10063252;29;20052;-89
2023/09/15 07:49:23;;;;;;;12.93;6.25;;;;;;;26.05;37.25;100675.69;10063567;29;20486;-92
2023/09/15 07:54:24;;;;;;;20.30;6.70;;;;;;;26.01;37.22;100657.44;10062874;29;20105;-92
2023/09/15 07:59:25;;;;;;;12.45;7.03;;;;;;;26.04;36.74;100640.59;10062754;29;20049;-89
2023/09/15 08:04:26;;;;;;;19.65;6.53;;;;;;;26.50;36.68;100679.78;10061934;29;20049;-90
2023/09/15 08:09:26;;;;;;;11.23;6.22;;;;;;;26.74;36.07;100673.88;10062621;29;20396;-90
2023/09/15 08:14:27;;;;;;;33.30;7.03;;;;;;;26.92;36.03;100658.94;10062861;29;20057;-89
2023/09/15 08:19:28;;;;;;;16.52;6.82;;;;;;;27.01;35.17;100658.16;10062480;29;20041;-91
2023/09/15 08:24:29;;;;;;;25.92;6.70;;;;;;;27.07;34.59;100609.88;10061934;29;20053;-85
2023/09/15 08:29:30;;;;;;;11.10;5.93;;;;;;;27.23;34.00;100635.31;10061711;29;20045;-90
2023/09/15 08:34:30;;;;;;;18.00;6.20;;;;;;;27.47;33.16;100647.31;10062063;29;20102;-87
2023/09/15 08:39:31;;;;;;;18.00;5.75;;;;;;;27.57;33.25;100645.66;10061017;29;20045;-91
2023/09/15 08:44:32;;;;;;;21.30;5.97;;;;;;;26.83;33.96;100596.78;10060431;29;20049;-87
2023/09/15 08:49:35;;;;;;;28.02;5.80;;;;;;;27.00;33.45;100584.81;10060947;29;20132;-86
2023/09/15 08:54:36;;;;;;;15.55;5.72;;;;;;;27.21;32.96;100580.19;10060908;29;20097;-90
2023/09/15 08:59:39;;;;;;;19.45;5.90;;;;;;;27.56;32.22;100619.47;10061483;29;20410;-93
2023/09/15 09:04:40;;;;;;;17.92;6.13;;;;;;;27.63;32.66;100623.53;10060996;29;20045;-93
2023/09/15 09:09:42;;;;;;;15.60;5.78;;;;;;;27.43;31.75;100569.00;10061070;29;20061;-93
2023/09/15 09:14:43;;;;;;;15.85;5.85;;;;;;;27.81;31.26;100624.91;10060684;29;20045;-89
2023/09/15 09:19:46;;;;;;;17.15;5.97;;;;;;;27.80;30.92;100598.72;10059295;29;20078;-91
2023/09/15 09:24:55;;;;;;;38.55;7.25;;;;;;;27.68;31.05;100519.84;10058306;29;20129;-90
2023/09/15 09:29:56;;;;;;;16.98;5.75;;;;;;;28.09;30.71;100588.00;10059554;29;20550;-92
2023/09/15 09:34:57;;;;;;;13.35;5.50;;;;;;;27.86;30.37;100537.56;10058898;29;20094;-88
2023/09/15 09:39:58;;;;;;;22.33;6.03;;;;;;;28.31;30.13;100592.25;10059208;29;20567;-85
2023/09/15 09:45:00;;;;;;;20.40;5.22;;;;;;;28.49;29.51;100590.84;10058768;29;20101;-92
2023/09/15 09:50:06;;;;;;;21.98;6.03;;;;;;;28.28;28.72;100535.47;10058980;29;20041;-93
2023/09/15 09:55:10;;;;;;;12.57;5.50;;;;;;;28.49;27.69;100578.00;10058387;29;20049;-88
2023/09/15 10:00:17;;;;;;;18.27;5.72;;;;;;;28.38;28.74;100563.53;10057850;29;20418;-87
2023/09/15 10:05:18;;;;;;;19.58;5.50;;;;;;;28.40;28.90;100561.34;10057849;29;20044;-88
2023/09/15 10:10:19;;;;;;;15.70;5.47;;;;;;;28.12;28.82;100519.16;10057014;29;20065;-87
2023/09/15 10:15:22;;;;;;;18.48;5.43;;;;;;;28.08;28.32;100519.97;10058050;29;20050;-87
2023/09/15 10:20:23;;;;;;;13.30;5.30;;;;;;;28.38;27.94;100563.53;10057435;29;20049;-92
2023/09/15 10:25:24;;;;;;;13.20;5.50;;;;;;;28.45;27.70;100525.00;10057430;29;20038;-87
2023/09/15 10:30:24;;;;;;;23.67;5.50;;;;;;;28.61;27.69;100553.06;10057095;29;20053;-87
2023/09/15 10:35:26;;;;;;;16.65;4.82;;;;;;;28.67;26.59;100557.38;10056888;29;20072;-89
2023/09/15 10:40:27;;;;;;;16.88;5.05;;;;;;;28.63;26.32;100548.94;10056735;29;20056;-92
2023/09/15 10:45:28;;;;;;;16.75;5.00;;;;;;;28.55;26.07;100535.88;10057045;29;20052;-89
2023/09/15 10:50:35;;;;;;;11.40;4.30;;;;;;;28.50;24.68;100505.03;10057295;29;20124;-88
2023/09/15 10:55:37;;;;;;;20.70;4.88;;;;;;;28.82;25.70;100545.53;10057428;29;20137;-89
2023/09/15 11:00:38;;;;;;;12.55;4.50;;;;;;;28.74;25.68;100503.19;10057308;29;20057;-92
2023/09/15 11:05:39;;;;;;;14.05;4.13;;;;;;;28.85;24.79;100523.09;10056658;29;20076;-92
2023/09/15 11:10:40;;;;;;;20.92;4.25;;;;;;;28.63;24.91;100490.72;10057428;29;20061;-91
2023/09/15 11:15:41;;;;;;;12.02;4.50;;;;;;;28.63;24.45;100513.41;10056957;29;20046;-91
2023/09/15 11:20:42;;;;;;;13.23;4.20;;;;;;;28.46;24.51;100509.44;10056806;29;20406;-91
2023/09/15 11:25:43;;;;;;;10.52;4.13;;;;;;;28.58;24.42;100526.28;10056581;29;20166;-86
2023/09/15 11:30:43;;;;;;;13.65;4.15;;;;;;;28.05;23.98;100472.19;10056311;29;20413;-87
2023/09/15 11:35:47;;;;;;;9.07;4.05;;;;;;;28.23;24.17;100504.31;10055791;29;20038;-89
2023/09/15 11:40:49;;;;;;;12.40;4.00;;;;;;;28.53;24.38;100532.59;10058095;29;20048;-89
2023/09/15 11:45:51;;;;;;;10.65;4.32;;;;;;;28.12;24.78;100472.72;10063084;29;20073;-91
2023/09/15 11:50:53;;;;;;;19.37;3.80;;;;;;;28.48;24.91;100527.19;10062779;29;20045;-85
2023/09/15 11:55:55;;;;;;;9.18;3.53;;;;;;;28.54;24.49;100534.25;10061900;29;20462;-90
2023/09/15 12:00:55;;;;;;;7.85;3.70;;;;;;;28.50;24.13;100537.81;10062383;29;20046;-88
2023/09/15 12:05:56;;;;;;;14.75;3.47;;;;;;;28.41;24.75;100535.66;10062361;29;20041;-90
2023/09/15 12:10:57;;;;;;;9.85;3.28;;;;;;;28.14;24.66;100492.34;10062342;29;20061;-87
2023/09/15 12:15:58;;;;;;;13.70;3.75;;;;;;;28.31;24.32;100529.44;10061322;29;20046;-92
2023/09/15 12:20:59;;;;;;;17.67;4.03;;;;;;;28.32;24.73;100536.53;10061576;29;20086;-80
2023/09/15 12:26:00;;;;;;;15.48;4.55;;;;;;;28.04;24.91;100511.53;10061445;29;20125;-81
2023/09/15 12:31:01;;;;;;;29.73;4.53;;;;;;;27.83;24.81;100512.72;10060344;29;20045;-81
2023/09/15 12:36:05;;;;;;;10.70;3.92;;;;;;;27.93;24.84;100545.44;10061290;29;20173;-80
2023/09/15 12:41:06;;;;;;;6.65;3.60;;;;;;;27.49;25.33;100472.41;10060079;29;20080;-81
2023/09/15 12:46:08;;;;;;;11.82;3.72;;;;;;;27.75;25.57;100541.38;10061069;29;20069;-79
2023/09/15 12:51:09;;;;;;;8.00;3.72;;;;;;;27.47;25.77;100518.25;10059976;29;20045;-80
2023/09/15 12:56:10;;;;;;;20.33;5.88;;;;;;;27.28;25.76;100516.13;10060150;29;20048;-81
2023/09/15 13:01:11;;;;;;;15.57;4.13;;;;;;;27.46;26.47;100555.66;10059716;29;20046;-82
2023/09/15 13:06:12;;;;;;;11.32;4.18;;;;;;;27.36;26.26;100552.09;10059674;29;20442;-80
2023/09/15 13:11:13;;;;;;;5.13;3.40;;;;;;;27.04;26.54;100518.56;10058213;29;20065;-81
2023/09/15 13:16:13;;;;;;;9.13;3.70;;;;;;;27.18;26.43;100557.03;10059215;29;20049;-82
2023/09/15 13:21:14;;;;;;;23.65;4.60;;;;;;;27.01;26.63;100548.25;10055047;29;20121;-81
2023/09/15 13:26:15;;;;;;;11.48;3.83;;;;;;;26.91;26.42;100568.16;10040091;29;20100;-83
2023/09/15 13:31:16;;;;;;;25.15;4.00;;;;;;;26.75;26.71;100563.78;10039879;29;20042;-83
2023/09/15 13:36:18;;;;;;;20.98;4.40;;;;;;;26.51;26.76;100549.84;10047776;29;20041;-80
2023/09/15 13:41:19;;;;;;;21.55;3.85;;;;;;;26.10;26.76;100503.41;10057849;29;20085;-82
2023/09/15 13:46:20;;;;;;;31.20;5.15;;;;;;;26.27;27.06;100558.47;10056895;29;20561;-82
2023/09/15 13:51:21;;;;;;;28.90;4.88;;;;;;;26.19;27.18;100558.97;10057166;29;20120;-80
2023/09/15 13:56:22;;;;;;;18.38;4.15;;;;;;;25.74;27.52;100533.16;10056715;29;20053;-81
2023/09/15 14:01:22;;;;;;;40.50;4.78;;;;;;;25.37;28.42;100539.47;10057132;29;20657;-83
2023/09/15 14:06:24;;;;;;;17.25;4.80;;;;;;;24.95;28.81;100534.78;10055386;29;20578;-80
2023/09/15 14:11:25;;;;;;;21.25;4.22;;;;;;;24.85;29.39;100567.25;10054752;29;20041;-80
2023/09/15 14:16:27;;;;;;;50.05;5.78;;;;;;;24.52;30.36;100565.56;10057898;29;20076;-82
2023/09/15 14:21:29;;;;;;;91.15;8.80;;;;;;;24.35;30.51;100568.34;10051703;29;20422;-79
2023/09/15 14:26:30;;;;;;;49.47;6.45;;;;;;;24.00;31.23;100512.56;10056426;29;20049;-81
2023/09/15 14:31:33;;;;;;;24.42;4.75;;;;;;;24.28;31.29;100575.84;10056143;29;20409;-81
2023/09/15 14:36:34;;;;;;;55.65;4.95;;;;;;;23.58;31.64;100480.53;10054591;29;20484;-80
2023/09/15 14:41:35;;;;;;;19.30;4.55;;;;;;;24.01;32.08;100567.66;10055341;29;20139;-82
2023/09/15 14:46:36;;;;;;;268.45;17.95;;;;;;;23.94;32.60;100575.97;10056095;29;20118;-82
2023/09/15 14:51:38;;;;;;;59.63;6.53;;;;;;;23.89;32.89;100593.00;10057175;29;20049;-81
2023/09/15 14:56:40;;;;;;;65.93;9.33;;;;;;;23.77;32.74;100588.75;10056223;29;20106;-81
2023/09/15 15:01:41;;;;;;;32.50;10.38;;;;;;;23.54;33.08;100587.03;10056078;29;20045;-81
2023/09/15 15:06:43;;;;;;;47.90;12.75;;;;;;;23.24;33.78;100590.88;10055940;29;20061;-81
2023/09/15 15:11:44;;;;;;;78.53;8.75;;;;;;;22.98;34.38;100593.19;10056318;29;20418;-81
2023/09/15 15:16:45;;;;;;;83.95;9.68;;;;;;;22.53;35.41;100557.94;10058913;29;20131;-81
2023/09/15 15:21:45;;;;;;;35.50;6.22;;;;;;;22.35;35.43;100564.34;10060104;29;20089;-79
2023/09/15 15:26:46;;;;;;;59.28;6.25;;;;;;;22.20;35.88;100583.81;10060239;29;20509;-78
2023/09/15 15:31:49;;;;;;;22.80;5.28;;;;;;;21.76;36.13;100547.38;10044484;29;20050;-82
2023/09/15 15:36:51;;;;;;;39.03;6.40;;;;;;;21.85;36.54;100605.47;10039921;29;20068;-77
2023/09/15 15:41:52;;;;;;;31.35;5.78;;;;;;;21.50;36.78;100573.00;10044887;29;20110;-78
2023/09/15 15:46:53;;;;;;;19.10;5.70;;;;;;;21.29;36.95;100579.78;10059802;29;20057;-78
2023/09/15 15:51:54;;;;;;;28.70;6.00;;;;;;;21.51;37.02;100623.31;10059325;29;20045;-77
2023/09/15 15:56:55;;;;;;;29.48;8.82;;;;;;;21.13;37.47;100586.69;10062734;29;20076;-78
2023/09/15 16:01:55;;;;;;;47.80;11.18;;;;;;;20.87;38.38;100574.41;10051900;29;20499;-79
2023/09/15 16:06:56;;;;;;;37.30;10.98;;;;;;;21.08;37.88;100627.06;10041775;29;20518;-82
2023/09/15 16:11:57;;;;;;;27.10;11.65;;;;;;;20.92;37.77;100618.56;10039727;29;20050;-83
2023/09/15 16:16:58;;;;;;;31.83;11.98;;;;;;;20.70;38.38;100602.06;10046700;29;20069;-84
2023/09/15 16:22:03;;;;;;;73.53;13.70;;;;;;;20.75;39.20;100622.97;10041106;29;20080;-77
2023/09/15 16:27:04;;;;;;;22.95;10.90;;;;;;;20.78;38.87;100663.00;10049842;29;20532;-78
2023/09/15 16:32:05;;;;;;;34.28;11.18;;;;;;;20.39;38.68;100613.00;10057506;29;20041;-79
2023/09/15 16:37:06;;;;;;;24.90;10.52;;;;;;;20.46;38.69;100652.38;10052834;29;20045;-81
2023/09/15 16:42:10;;;;;;;27.98;9.98;;;;;;;20.01;39.15;100616.75;10060542;29;20045;-82
2023/09/15 16:47:14;;;;;;;23.40;9.27;;;;;;;19.83;39.33;100612.16;10053369;29;20094;-81
2023/09/15 16:52:15;;;;;;;21.92;7.47;;;;;;;19.74;39.07;100610.78;10041778;29;20038;-80
2023/09/15 16:57:16;;;;;;;20.42;6.38;;;;;;;19.92;38.62;100653.97;10044580;29;20046;-81
2023/09/15 17:02:16;;;;;;;11.75;5.10;;;;;;;19.90;38.24;100650.69;10046660;29;20049;-82
2023/09/15 17:07:17;;;;;;;17.73;5.88;;;;;;;19.73;39.67;100677.34;10049372;29;20057;-85
2023/09/15 17:12:19;;;;;;;13.85;6.03;;;;;;;19.25;41.67;100672.50;10047893;29;20417;-82
2023/09/15 17:17:20;;;;;;;20.15;6.90;;;;;;;18.83;42.93;100673.97;10046497;29;20042;-81
2023/09/15 17:22:21;;;;;;;24.25;7.38;;;;;;;18.47;43.41;100678.03;10039035;29;20045;-81
2023/09/15 17:27:22;;;;;;;28.77;6.75;;;;;;;18.31;44.56;100689.22;10047007;29;20502;-85
2023/09/15 17:32:23;;;;;;;18.15;7.15;;;;;;;18.10;44.17;100677.69;10043029;29;20110;-86
2023/09/15 17:37:24;;;;;;;588.03;37.38;;;;;;;17.86;46.26;100681.88;10038196;29;20042;-88
2023/09/15 17:42:25;;;;;;;63.60;10.63;;;;;;;17.46;47.64;100678.28;10038124;29;20041;-88
2023/09/15 17:47:26;;;;;;;72.82;9.98;;;;;;;17.08;48.28;100666.25;10044455;29;20049;-88
2023/09/15 17:52:28;;;;;;;33.88;7.70;;;;;;;16.85;49.08;100641.63;10037477;29;20057;-88
2023/09/15 17:57:29;;;;;;;35.35;8.25;;;;;;;16.69;50.10;100647.31;10046182;29;20045;-84
2023/09/15 18:02:30;;;;;;;28.95;8.80;;;;;;;16.67;50.19;100655.56;10040071;29;20501;-84
2023/09/15 18:07:31;;;;;;;26.13;8.23;;;;;;;16.62;49.80;100655.31;10039627;29;20061;-81
2023/09/15 18:12:33;;;;;;;26.02;8.15;;;;;;;16.46;50.11;100631.53;10038217;29;20046;-82
2023/09/15 18:17:37;;;;;;;24.65;8.18;;;;;;;16.59;50.73;100645.81;10039807;29;20052;-84
2023/09/15 18:22:38;;;;;;;26.95;8.38;;;;;;;16.35;50.64;100598.91;10046945;29;20052;-83
2023/09/15 18:27:41;;;;;;;25.90;8.13;;;;;;;16.54;50.74;100640.25;10056584;29;20049;-84
2023/09/15 18:32:41;;;;;;;45.42;10.05;;;;;;;16.02;51.20;100589.88;10057084;29;20048;-86
2023/09/15 18:37:42;;;;;;;33.75;8.23;;;;;;;16.09;52.21;100633.59;10057483;29;20406;-86
2023/09/15 18:42:43;;;;;;;24.05;7.93;;;;;;;16.00;52.94;100638.28;10056420;29;20578;-83
2023/09/15 18:47:45;;;;;;;23.08;8.32;;;;;;;15.80;53.77;100643.53;10056886;29;20082;-84
2023/09/15 18:52:46;;;;;;;39.83;8.68;;;;;;;15.45;54.65;100576.47;10061412;29;20056;-84
2023/09/15 18:57:46;;;;;;;57.83;8.93;;;;;;;15.74;54.30;100628.22;10064048;29;20052;-84
2023/09/15 19:02:48;;;;;;;55.05;10.00;;;;;;;15.52;54.60;100625.56;10064567;29;20068;-82
2023/09/15 19:07:48;;;;;;;30.52;8.13;;;;;;;15.26;54.85;100649.41;10064107;29;20200;-88
2023/09/15 19:12:52;;;;;;;24.02;7.00;;;;;;;15.21;55.96;100649.97;10079078;29;20045;-89
2023/09/15 19:17:54;;;;;;;28.13;7.30;;;;;;;15.06;55.69;100636.66;10078308;29;20048;-90
2023/09/15 19:22:55;;;;;;;20.33;8.85;;;;;;;15.09;55.25;100639.97;10064740;29;20041;-88
2023/09/15 19:27:55;;;;;;;27.33;9.13;;;;;;;15.11;55.18;100641.44;10063231;29;20052;-81
2023/09/15 19:32:56;;;;;;;19.02;8.48;;;;;;;14.98;55.13;100638.63;10063103;29;20096;-81
2023/09/15 19:37:57;;;;;;;19.58;7.55;;;;;;;14.93;55.64;100633.03;10062526;29;20053;-82
2023/09/15 19:43:06;;;;;;;94.03;42.85;;;;;;;14.80;55.59;100606.94;10061853;29;20051;-86
2023/09/15 19:48:08;;;;;;;93.53;44.28;;;;;;;14.86;55.69;100613.38;10061574;29;20080;-84
2023/09/15 19:53:08;;;;;;;78.65;37.83;;;;;;;14.60;56.28;100546.06;10061798;29;20074;-88
2023/09/15 19:58:09;;;;;;;32.22;10.35;;;;;;;14.91;56.07;100585.06;10062396;29;20052;-88
2023/09/15 20:03:11;;;;;;;25.75;9.98;;;;;;;15.07;57.02;100626.78;10061009;29;20049;-88
2023/09/15 20:08:12;;;;;;;25.05;8.98;;;;;;;14.59;57.75;100560.44;10061622;29;20462;-87
2023/09/15 20:13:13;;;;;;;32.55;10.70;;;;;;;14.73;58.53;100592.69;10060286;29;20110;-88
2023/09/15 20:18:14;;;;;;;28.45;11.25;;;;;;;14.51;58.88;100579.28;10061705;29;20113;-88
2023/09/15 20:23:15;;;;;;;21.05;9.38;;;;;;;14.79;58.93;100616.00;10059563;29;20520;-88
2023/09/15 20:28:16;;;;;;;16.77;8.82;;;;;;;14.10;59.19;100501.47;10061310;29;20045;-87
2023/09/15 20:33:17;;;;;;;22.80;9.40;;;;;;;14.60;59.80;100588.84;10061293;29;20423;-88
2023/09/15 20:38:18;;;;;;;17.48;9.38;;;;;;;14.75;60.69;100606.72;10060443;29;20045;-88
2023/09/15 20:43:18;;;;;;;18.80;7.95;;;;;;;14.73;60.21;100598.03;10060609;29;20045;-88
2023/09/15 20:48:19;;;;;;;21.95;8.57;;;;;;;14.82;60.13;100607.59;10060760;29;20042;-88
2023/09/15 20:53:20;;;;;;;29.05;8.65;;;;;;;15.00;59.77;100605.31;10060173;29;20045;-88
2023/09/15 20:58:21;;;;;;;12.60;6.53;;;;;;;15.07;58.10;100541.16;10059465;29;20105;-89
2023/09/15 21:03:22;;;;;;;11.02;5.63;;;;;;;15.73;56.84;100594.41;10059945;29;20109;-88
2023/09/15 21:08:22;;;;;;;14.85;5.45;;;;;;;15.81;55.79;100542.56;10059779;29;20061;-90
2023/09/15 21:13:23;;;;;;;10.38;5.25;;;;;;;16.50;54.66;100579.97;10059737;29;20061;-87
2023/09/15 21:18:24;;;;;;;11.48;4.65;;;;;;;17.05;53.32;100586.16;10060206;29;20128;-88
2023/09/15 21:23:25;;;;;;;10.43;4.65;;;;;;;17.30;52.58;100582.84;10058864;29;20046;-89
2023/09/15 21:28:26;;;;;;;10.85;5.30;;;;;;;17.38;52.61;100568.38;10058695;29;20049;-88
2023/09/15 21:33:26;;;;;;;8.35;5.00;;;;;;;17.26;52.59;100558.28;10058569;29;20041;-87
2023/09/15 21:38:28;;;;;;;7.35;4.78;;;;;;;16.81;52.66;100485.59;10059926;29;20124;-91
2023/09/15 21:43:29;;;;;;;7.32;5.00;;;;;;;16.85;52.72;100512.84;10058787;29;20513;-88
2023/09/15 21:48:29;;;;;;;17.25;4.88;;;;;;;16.94;53.25;100559.91;10058123;29;20038;-89
2023/09/15 21:53:30;;;;;;;9.15;4.32;;;;;;;16.78;53.30;100536.97;10057891;29;20490;-89
2023/09/15 21:58:31;;;;;;;11.10;5.40;;;;;;;16.74;53.52;100537.53;10058277;29;20045;-89
2023/09/15 22:03:32;;;;;;;9.07;4.47;;;;;;;16.57;53.61;100502.22;10057305;29;20418;-88
2023/09/15 22:08:33;;;;;;;17.25;6.65;;;;;;;16.80;53.81;100552.84;10057831;29;20073;-88
2023/09/15 22:13:37;;;;;;;17.60;5.32;;;;;;;16.83;54.13;100596.19;10057159;29;20497;-89
2023/09/15 22:18:38;;;;;;;15.10;6.00;;;;;;;16.79;54.41;100580.72;10057128;29;20506;-85
2023/09/15 22:23:39;;;;;;;25.40;8.15;;;;;;;16.61;55.16;100567.84;10057347;29;20106;-88
2023/09/15 22:28:40;;;;;;;17.48;7.50;;;;;;;16.50;55.38;100590.72;10054625;29;20041;-87
2023/09/15 22:33:41;;;;;;;26.27;7.30;;;;;;;16.33;55.99;100574.16;10056634;29;20052;-88
2023/09/15 22:38:42;;;;;;;13.55;8.13;;;;;;;16.34;56.26;100591.88;10056514;29;20124;-87
2023/09/15 22:43:43;;;;;;;9.82;7.30;;;;;;;16.07;57.06;100584.75;10057132;29;20059;-88